createdAt,value
2018-06-07T00:01:46.780Z,43.60
2018-06-07T00:04:15.082Z,42.40
2018-06-07T00:06:43.383Z,41.77
2018-06-07T00:09:11.657Z,44.70
2018-06-07T00:11:39.915Z,43.63
2018-06-07T00:14:08.194Z,45.97
2018-06-07T00:16:36.471Z,47.43
2018-06-07T00:19:04.787Z,38.87
2018-06-07T00:21:33.037Z,45.83
2018-06-07T00:24:01.290Z,45.03
2018-06-07T00:26:29.557Z,48.43
2018-06-07T00:28:57.832Z,41.23
2018-06-07T00:31:26.121Z,42.67
2018-06-07T00:33:54.376Z,43.57
2018-06-07T00:36:22.642Z,47.93
2018-06-07T00:38:50.915Z,45.60
2018-06-07T00:41:19.188Z,47.30
2018-06-07T00:43:47.488Z,44.73
2018-06-07T00:46:15.751Z,47.23
2018-06-07T00:48:44.012Z,55.73
2018-06-07T00:51:12.284Z,47.17
2018-06-07T00:53:40.563Z,53.00
2018-06-07T00:56:09.134Z,46.47
2018-06-07T00:58:37.368Z,49.00
2018-06-07T01:01:05.390Z,47.03
2018-06-07T01:03:33.674Z,47.73
2018-06-07T01:06:01.940Z,50.30
2018-06-07T01:08:30.224Z,50.87
2018-06-07T01:10:58.669Z,56.17
2018-06-07T01:13:26.937Z,49.97
2018-06-07T01:15:55.233Z,49.93
2018-06-07T01:18:23.514Z,52.03
2018-06-07T01:20:51.812Z,48.03
2018-06-07T01:23:20.673Z,49.13
2018-06-07T01:25:48.920Z,52.37
2018-06-07T01:28:17.209Z,52.30
2018-06-07T01:30:50.792Z,48.83
2018-06-07T01:33:36.746Z,46.87
2018-06-07T01:36:05.034Z,51.93
2018-06-07T01:38:44.761Z,46.87
2018-06-07T01:41:13.047Z,46.77
2018-06-07T01:43:41.379Z,47.90
2018-06-07T01:46:09.625Z,51.30
2018-06-07T01:48:37.880Z,48.60
2018-06-07T01:51:06.188Z,51.67
2018-06-07T01:53:34.488Z,52.30
2018-06-07T01:56:02.763Z,49.80
2018-06-07T01:58:31.072Z,50.77
2018-06-07T02:00:59.371Z,57.50
2018-06-07T02:03:27.626Z,55.37
2018-06-07T02:05:55.942Z,55.07
2018-06-07T02:08:24.219Z,55.63
2018-06-07T02:10:52.855Z,51.40
2018-06-07T02:13:21.115Z,54.07
2018-06-07T02:15:49.751Z,46.03
2018-06-07T02:18:18.395Z,48.87
2018-06-07T02:20:46.700Z,51.17
2018-06-07T02:23:14.950Z,53.23
2018-06-07T02:25:43.238Z,50.73
2018-06-07T02:28:11.479Z,51.03
2018-06-07T02:30:39.771Z,61.13
2018-06-07T02:33:08.067Z,52.97
2018-06-07T02:35:36.355Z,51.73
2018-06-07T02:38:04.929Z,53.67
2018-06-07T02:40:33.314Z,48.23
2018-06-07T02:43:01.584Z,51.47
2018-06-07T02:45:29.891Z,52.57
2018-06-07T02:47:58.181Z,57.60
2018-06-07T02:50:26.505Z,54.07
2018-06-07T02:52:54.759Z,54.20
2018-06-07T02:55:23.019Z,53.53
2018-06-07T02:57:51.314Z,58.70
2018-06-07T03:00:19.569Z,57.40
2018-06-07T03:02:47.860Z,59.00
2018-06-07T03:05:16.439Z,61.37
2018-06-07T03:07:44.715Z,62.27
2018-06-07T03:10:12.998Z,68.90
2018-06-07T03:12:41.294Z,68.83
2018-06-07T03:15:09.559Z,66.70
2018-06-07T03:17:37.820Z,52.10
2018-06-07T03:20:06.088Z,56.00
2018-06-07T03:22:34.359Z,56.07
2018-06-07T03:25:02.686Z,60.83
2018-06-07T03:27:30.951Z,55.20
2018-06-07T03:29:59.262Z,61.73
2018-06-07T03:32:27.533Z,57.20
2018-06-07T03:34:55.823Z,58.00
2018-06-07T03:37:24.083Z,61.47
2018-06-07T03:39:52.380Z,61.87
2018-06-07T03:42:20.667Z,58.97
2018-06-07T03:44:48.943Z,64.10
2018-06-07T03:47:17.203Z,58.43
2018-06-07T03:49:45.478Z,69.50
2018-06-07T03:52:13.741Z,66.97
2018-06-07T03:54:42.046Z,61.73
2018-06-07T03:57:10.366Z,73.77
2018-06-07T03:59:38.652Z,72.27
2018-06-07T04:02:06.947Z,69.70
2018-06-07T04:04:35.235Z,64.40
2018-06-07T04:07:03.762Z,61.47
2018-06-07T04:09:32.022Z,56.90
2018-06-07T04:12:00.303Z,64.97
2018-06-07T04:14:28.564Z,55.60
2018-06-07T04:16:57.377Z,57.93
2018-06-07T04:19:25.671Z,54.93
2018-06-07T04:21:54.015Z,62.10
2018-06-07T04:24:22.302Z,55.20
2018-06-07T04:26:50.566Z,53.47
2018-06-07T04:29:18.842Z,58.27
2018-06-07T04:31:47.145Z,49.67
2018-06-07T04:34:15.431Z,51.53
2018-06-07T04:36:43.701Z,51.80
2018-06-07T04:39:11.974Z,50.70
2018-06-07T04:41:40.230Z,46.67
2018-06-07T04:44:08.530Z,52.87
2018-06-07T04:46:36.828Z,45.30
2018-06-07T04:49:05.131Z,47.93
2018-06-07T04:51:33.431Z,46.90
2018-06-07T04:54:01.695Z,44.07
2018-06-07T04:56:30.004Z,46.90
2018-06-07T04:58:58.283Z,46.67
2018-06-07T05:01:26.889Z,52.43
2018-06-07T05:03:55.380Z,46.27
2018-06-07T05:06:23.676Z,47.10
2018-06-07T05:08:51.968Z,47.30
2018-06-07T05:11:20.294Z,48.27
2018-06-07T05:13:48.595Z,46.70
2018-06-07T05:16:16.916Z,44.30
2018-06-07T05:18:45.220Z,44.23
2018-06-07T05:21:13.526Z,42.50
2018-06-07T05:23:41.949Z,39.47
2018-06-07T05:26:10.236Z,43.10
2018-06-07T05:28:38.558Z,42.77
2018-06-07T05:31:06.638Z,36.70
2018-06-07T05:33:34.966Z,38.00
2018-06-07T05:36:03.366Z,39.30
2018-06-07T05:38:31.691Z,36.80
2018-06-07T05:41:00.002Z,36.47
2018-06-07T05:43:28.857Z,41.42
2018-06-07T05:45:57.152Z,36.20
2018-06-07T05:48:26.056Z,36.90
2018-06-07T05:50:54.911Z,33.13
2018-06-07T05:53:23.756Z,34.15
2018-06-07T05:55:52.624Z,34.55
2018-06-07T05:58:24.808Z,31.90
2018-06-07T06:00:53.700Z,37.20
2018-06-07T06:03:22.514Z,30.60
2018-06-07T06:05:51.553Z,26.62
2018-06-07T06:08:20.381Z,25.48
2018-06-07T06:10:49.284Z,23.95
2018-06-07T06:13:18.127Z,25.20
2018-06-07T06:15:56.305Z,26.62
2018-06-07T06:18:25.139Z,19.75
2018-06-07T06:20:54.027Z,25.62
2018-06-07T06:23:22.864Z,20.23
2018-06-07T06:25:54.767Z,22.00
2018-06-07T06:28:23.631Z,22.32
2018-06-07T06:30:52.548Z,23.62
2018-06-07T06:33:21.449Z,19.37
2018-06-07T06:35:50.844Z,21.65
2018-06-07T06:38:35.554Z,21.40
2018-06-07T06:41:04.657Z,22.58
2018-06-07T06:43:33.532Z,19.90
2018-06-07T06:46:02.279Z,23.25
2018-06-07T06:48:31.143Z,24.43
2018-06-07T06:51:00.022Z,23.40
2018-06-07T06:53:28.897Z,21.35
2018-06-07T06:55:57.707Z,21.87
2018-06-07T06:58:35.962Z,20.25
2018-06-07T07:01:04.817Z,21.65
2018-06-07T07:03:33.696Z,21.95
2018-06-07T07:06:02.619Z,19.98
2018-06-07T07:08:31.544Z,17.52
2018-06-07T07:11:00.423Z,17.75
2018-06-07T07:13:29.291Z,17.35
2018-06-07T07:15:57.984Z,17.48
2018-06-07T07:18:29.967Z,17.65
2018-06-07T07:20:58.876Z,16.42
2018-06-07T07:23:27.771Z,16.42
2018-06-07T07:25:56.939Z,18.07
2018-06-07T07:28:25.782Z,14.87
2018-06-07T07:30:54.632Z,16.85
2018-06-07T07:33:23.494Z,16.85
2018-06-07T07:35:52.386Z,16.95
2018-06-07T07:38:21.239Z,16.23
2018-06-07T07:40:50.091Z,13.68
2018-06-07T07:43:18.973Z,15.05
2018-06-07T07:45:47.799Z,15.50
2018-06-07T07:48:16.626Z,16.65
2018-06-07T07:50:45.495Z,18.57
2018-06-07T07:53:14.343Z,15.53
2018-06-07T07:55:43.240Z,17.42
2018-06-07T07:58:12.375Z,15.10
2018-06-07T08:00:41.212Z,15.80
2018-06-07T08:03:10.119Z,15.90
2018-06-07T08:05:38.979Z,19.80
2018-06-07T08:08:08.229Z,16.07
2018-06-07T08:10:37.077Z,16.35
2018-06-07T08:13:06.365Z,14.73
2018-06-07T08:15:35.201Z,16.90
2018-06-07T08:18:04.037Z,15.48
2018-06-07T08:20:32.856Z,13.25
2018-06-07T08:23:01.688Z,16.65
2018-06-07T08:25:30.568Z,12.03
2018-06-07T08:27:59.501Z,13.58
2018-06-07T08:30:28.693Z,18.10
2018-06-07T08:32:57.532Z,14.23
2018-06-07T08:35:26.421Z,14.00
2018-06-07T08:37:55.291Z,13.22
2018-06-07T08:40:24.158Z,12.47
2018-06-07T08:42:53.339Z,14.43
2018-06-07T08:45:22.187Z,15.40
2018-06-07T08:47:51.026Z,15.08
2018-06-07T08:50:19.915Z,15.03
2018-06-07T08:52:49.339Z,15.90
2018-06-07T08:55:18.161Z,20.90
2018-06-07T08:57:47.064Z,17.02
2018-06-07T09:00:15.937Z,16.73
2018-06-07T09:02:45.012Z,16.50
2018-06-07T09:05:13.903Z,16.70
2018-06-07T09:07:42.748Z,15.10
2018-06-07T09:10:11.600Z,15.32
2018-06-07T09:12:40.485Z,12.93
2018-06-07T09:15:09.338Z,15.80
2018-06-07T09:17:38.199Z,17.37
2018-06-07T09:20:07.104Z,13.78
2018-06-07T09:22:35.938Z,16.45
2018-06-07T09:25:06.758Z,14.38
2018-06-07T09:27:35.581Z,15.88
2018-06-07T09:30:04.421Z,13.22
2018-06-07T09:32:33.299Z,15.05
2018-06-07T09:35:02.151Z,12.85
2018-06-07T09:37:30.953Z,17.45
2018-06-07T09:39:59.839Z,16.02
2018-06-07T09:42:28.407Z,13.83
2018-06-07T09:44:57.294Z,14.25
2018-06-07T09:47:26.138Z,13.20
2018-06-07T09:49:54.949Z,14.10
2018-06-07T09:52:23.481Z,13.30
2018-06-07T09:54:51.978Z,13.73
2018-06-07T09:57:20.588Z,16.27
2018-06-07T09:59:49.144Z,15.53
2018-06-07T10:02:17.681Z,15.63
2018-06-07T10:04:46.623Z,16.60
2018-06-07T10:07:15.195Z,14.03
2018-06-07T10:09:43.777Z,12.03
2018-06-07T10:12:12.364Z,16.80
2018-06-07T10:14:40.901Z,15.97
2018-06-07T10:17:09.463Z,13.80
2018-06-07T10:19:38.046Z,14.53
2018-06-07T10:22:06.779Z,17.07
2018-06-07T10:24:35.343Z,16.40
2018-06-07T10:27:03.899Z,15.53
2018-06-07T10:29:32.738Z,17.07
2018-06-07T10:32:01.314Z,14.63
2018-06-07T10:34:29.877Z,13.97
2018-06-07T10:36:58.541Z,18.17
2018-06-07T10:39:27.113Z,13.80
2018-06-07T10:41:55.692Z,16.33
2018-06-07T10:44:24.246Z,15.30
2018-06-07T10:46:52.910Z,16.17
2018-06-07T10:49:21.499Z,16.57
2018-06-07T10:51:50.089Z,14.97
2018-06-07T10:54:18.627Z,15.30
2018-06-07T10:56:47.211Z,13.63
2018-06-07T10:59:15.744Z,14.63
2018-06-07T11:01:44.382Z,13.77
2018-06-07T11:04:12.999Z,16.10
2018-06-07T11:06:41.535Z,14.90
2018-06-07T11:09:10.105Z,16.83
2018-06-07T11:11:38.671Z,15.03
2018-06-07T11:14:07.268Z,14.50
2018-06-07T11:16:35.867Z,15.67
2018-06-07T11:19:04.433Z,17.00
2018-06-07T11:21:33.035Z,13.70
2018-06-07T11:24:01.680Z,16.07
2018-06-07T11:26:30.387Z,14.70
2018-06-07T11:28:59.335Z,15.60
2018-06-07T11:31:27.880Z,16.60
2018-06-07T11:33:56.669Z,15.87
2018-06-07T11:36:25.269Z,18.80
2018-06-07T11:38:54.130Z,17.48
2018-06-07T11:41:23.063Z,18.65
2018-06-07T11:43:51.956Z,17.65
2018-06-07T11:46:20.524Z,15.47
2018-06-07T11:48:49.105Z,15.40
2018-06-07T11:51:18.311Z,17.50
2018-06-07T11:53:47.219Z,16.57
2018-06-07T11:56:16.072Z,18.85
2018-06-07T11:58:45.210Z,18.87
2018-06-07T12:01:14.066Z,17.65
2018-06-07T12:03:42.989Z,22.15
2018-06-07T12:06:11.864Z,15.95
2018-06-07T12:08:40.769Z,15.70
2018-06-07T12:11:09.635Z,21.57
2018-06-07T12:13:38.837Z,18.90
2018-06-07T12:16:07.737Z,16.55
2018-06-07T12:18:36.627Z,17.45
2018-06-07T12:21:05.583Z,17.37
2018-06-07T12:23:34.488Z,14.47
2018-06-07T12:26:06.800Z,17.42
2018-06-07T12:28:35.626Z,16.48
2018-06-07T12:31:04.570Z,16.55
2018-06-07T12:33:33.491Z,22.70
2018-06-07T12:36:02.336Z,18.12
2018-06-07T12:38:31.354Z,19.30
2018-06-07T12:41:00.212Z,21.80
2018-06-07T12:43:29.111Z,16.37
2018-06-07T12:45:58.017Z,17.10
2018-06-07T12:48:26.924Z,16.95
2018-06-07T12:50:55.927Z,17.90
2018-06-07T12:53:24.823Z,16.77
2018-06-07T12:55:53.735Z,16.48
2018-06-07T12:58:22.318Z,17.93
2018-06-07T13:00:51.694Z,17.92
2018-06-07T13:03:20.663Z,17.12
2018-06-07T13:05:50.036Z,15.28
2018-06-07T13:08:19.796Z,19.65
2018-06-07T13:10:48.772Z,18.45
2018-06-07T13:13:17.651Z,19.92
2018-06-07T13:15:47.284Z,16.75
2018-06-07T13:18:16.131Z,19.62
2018-06-07T13:20:44.805Z,16.50
2018-06-07T13:23:13.722Z,16.62
2018-06-07T13:25:42.758Z,16.52
2018-06-07T13:28:11.650Z,17.50
2018-06-07T13:30:40.522Z,15.85
2018-06-07T13:33:09.398Z,15.15
2018-06-07T13:35:38.272Z,14.90
2018-06-07T13:38:07.461Z,17.25
2018-06-07T13:40:36.386Z,18.07
2018-06-07T13:43:05.684Z,19.32
2018-06-07T13:45:34.594Z,14.98
2018-06-07T13:48:03.167Z,14.57
2018-06-07T13:50:32.084Z,17.05
2018-06-07T13:53:01.007Z,18.90
2018-06-07T13:55:29.644Z,15.97
2018-06-07T13:57:58.626Z,14.50
2018-06-07T14:00:30.723Z,16.93
2018-06-07T14:02:59.652Z,16.27
2018-06-07T14:05:29.020Z,17.67
2018-06-07T14:07:57.921Z,17.50
2018-06-07T14:10:26.559Z,18.20
2018-06-07T14:12:55.646Z,16.90
2018-06-07T14:15:24.537Z,16.60
2018-06-07T14:17:53.528Z,17.65
2018-06-07T14:20:22.172Z,15.70
2018-06-07T14:22:50.833Z,15.57
2018-06-07T14:25:19.468Z,15.27
2018-06-07T14:27:48.108Z,18.47
2018-06-07T14:30:16.719Z,18.17
2018-06-07T14:32:45.348Z,15.10
2018-06-07T14:35:14.012Z,14.43
2018-06-07T14:37:42.673Z,16.63
2018-06-07T14:40:11.360Z,14.27
2018-06-07T14:42:40.200Z,12.93
2018-06-07T14:45:08.848Z,16.83
2018-06-07T14:47:37.492Z,14.33
2018-06-07T14:50:06.435Z,16.13
2018-06-07T14:52:35.088Z,14.43
2018-06-07T14:55:03.681Z,12.77
2018-06-07T14:57:32.030Z,12.20
2018-06-07T15:00:00.700Z,13.47
2018-06-07T15:02:29.331Z,11.17
2018-06-07T15:04:57.969Z,12.57
2018-06-07T15:07:26.615Z,15.57
2018-06-07T15:09:55.164Z,11.47
2018-06-07T15:12:23.789Z,10.90
2018-06-07T15:14:52.302Z,14.07
2018-06-07T15:17:21.030Z,13.13
2018-06-07T15:19:49.812Z,15.13
2018-06-07T15:22:18.428Z,13.03
2018-06-07T15:24:47.069Z,12.97
2018-06-07T15:27:18.488Z,11.33
2018-06-07T15:29:47.129Z,13.30
2018-06-07T15:32:15.971Z,10.83
2018-06-07T15:34:44.592Z,10.80
2018-06-07T15:37:13.199Z,12.53
2018-06-07T15:39:41.835Z,14.20
2018-06-07T15:42:10.465Z,13.70
2018-06-07T15:44:39.076Z,11.40
2018-06-07T15:47:07.991Z,11.30
2018-06-07T15:49:36.560Z,13.27
2018-06-07T15:52:05.279Z,12.13
2018-06-07T15:54:33.855Z,12.23
2018-06-07T15:57:02.463Z,12.43
2018-06-07T15:59:31.071Z,12.20
2018-06-07T16:01:59.685Z,11.10
2018-06-07T16:04:28.312Z,11.37
2018-06-07T16:06:56.936Z,9.70
2018-06-07T16:09:25.813Z,10.03
2018-06-07T16:11:54.448Z,9.30
2018-06-07T16:14:23.079Z,8.77
2018-06-07T16:16:51.654Z,8.30
2018-06-07T16:19:20.279Z,12.47
2018-06-07T16:21:48.912Z,10.20
2018-06-07T16:24:17.552Z,9.77
2018-06-07T16:26:46.158Z,8.17
2018-06-07T16:29:14.744Z,7.30
2018-06-07T16:31:43.437Z,9.70
2018-06-07T16:34:12.330Z,7.17
2018-06-07T16:36:40.902Z,6.63
2018-06-07T16:39:09.511Z,8.87
2018-06-07T16:41:38.259Z,6.13
2018-06-07T16:44:06.873Z,7.50
2018-06-07T16:46:35.508Z,6.70
2018-06-07T16:49:04.366Z,5.77
2018-06-07T16:51:32.969Z,7.93
2018-06-07T16:54:01.716Z,6.70
2018-06-07T16:56:30.355Z,7.10
2018-06-07T16:58:59.015Z,6.70
2018-06-07T17:01:27.594Z,9.57
2018-06-07T17:03:56.491Z,7.58
2018-06-07T17:06:25.749Z,7.28
2018-06-07T17:08:54.705Z,7.35
2018-06-07T17:11:23.333Z,8.43
2018-06-07T17:13:52.186Z,7.75
2018-06-07T17:16:21.060Z,8.23
2018-06-07T17:18:50.261Z,8.00
2018-06-07T17:21:19.164Z,8.10
2018-06-07T17:23:48.091Z,8.85
2018-06-07T17:26:16.973Z,9.55
2018-06-07T17:28:45.920Z,8.75
2018-06-07T17:31:14.891Z,8.95
2018-06-07T17:33:43.765Z,9.63
2018-06-07T17:36:15.484Z,8.50
2018-06-07T17:58:04.503Z,7.58
2018-06-07T18:00:33.516Z,8.58
2018-06-07T18:03:02.454Z,8.78
2018-06-07T18:05:31.349Z,9.68
2018-06-07T18:08:00.245Z,8.93
2018-06-07T18:10:29.207Z,9.70
2018-06-07T18:12:58.261Z,9.70
2018-06-07T18:15:27.292Z,8.58
2018-06-07T18:17:56.219Z,9.75
2018-06-07T18:20:25.073Z,9.30
2018-06-07T18:22:53.975Z,9.10
2018-06-07T18:25:22.850Z,9.65
2018-06-07T18:27:51.439Z,12.58
2018-06-07T18:30:19.760Z,10.48
2018-06-07T18:32:48.642Z,11.30
2018-06-07T18:35:16.951Z,11.27
2018-06-07T18:37:45.935Z,11.45
2018-06-07T18:40:14.395Z,11.97
2018-06-07T18:42:42.993Z,11.67
2018-06-07T18:45:11.327Z,12.15
2018-06-07T18:47:40.237Z,13.65
2018-06-07T18:50:08.832Z,11.20
2018-06-07T18:52:37.786Z,12.35
2018-06-07T18:55:07.189Z,12.65
2018-06-07T18:57:35.487Z,12.97
2018-06-07T19:00:04.075Z,12.63
2018-06-07T19:02:32.402Z,14.30
2018-06-07T19:05:00.716Z,13.23
2018-06-07T19:07:29.028Z,14.67
2018-06-07T19:10:01.378Z,16.57
2018-06-07T19:12:29.666Z,15.33
2018-06-07T19:15:03.426Z,15.40
2018-06-07T19:17:31.745Z,15.40
2018-06-07T19:20:05.518Z,17.07
2018-06-07T19:22:33.899Z,15.60
2018-06-07T19:25:07.544Z,16.50
2018-06-07T19:27:35.908Z,17.50
2018-06-07T19:30:04.525Z,18.97
2018-06-07T19:32:38.121Z,17.73
2018-06-07T19:35:10.786Z,18.37
2018-06-07T19:37:39.215Z,16.37
2018-06-07T19:40:12.995Z,18.30
2018-06-07T19:42:41.304Z,17.60
2018-06-07T19:45:09.946Z,16.97
2018-06-07T19:47:38.319Z,18.17
2018-06-07T19:50:06.674Z,16.83
2018-06-07T19:52:35.574Z,18.10
2018-06-07T19:55:03.895Z,17.27
2018-06-07T19:57:32.283Z,21.43
2018-06-07T20:00:00.689Z,20.70
2018-06-07T20:02:29.066Z,18.13
2018-06-07T20:04:57.497Z,20.73
2018-06-07T20:07:25.813Z,20.20
2018-06-07T20:09:54.212Z,21.20
2018-06-07T20:12:22.527Z,19.43
2018-06-07T20:14:50.936Z,22.50
2018-06-07T20:17:19.226Z,21.83
2018-06-07T20:19:47.584Z,21.10
2018-06-07T20:22:15.929Z,22.13
2018-06-07T20:24:44.261Z,24.10
2018-06-07T20:27:12.637Z,22.47
2018-06-07T20:29:41.305Z,23.77
2018-06-07T20:32:09.656Z,22.93
2018-06-07T20:34:37.990Z,21.90
2018-06-07T20:37:06.336Z,24.87
2018-06-07T20:39:34.673Z,25.47
2018-06-07T20:42:03.281Z,25.63
2018-06-07T20:44:31.590Z,24.77
2018-06-07T20:47:06.378Z,27.40
2018-06-07T20:49:34.682Z,27.23
2018-06-07T20:52:03.261Z,29.67
2018-06-07T20:54:31.577Z,25.80
2018-06-07T20:57:00.153Z,28.67
2018-06-07T20:59:28.531Z,28.50
2018-06-07T21:01:56.826Z,29.07
2018-06-07T21:04:25.183Z,30.30
2018-06-07T21:06:53.696Z,30.53
2018-06-07T21:09:22.120Z,29.07
2018-06-07T21:11:50.527Z,30.87
2018-06-07T21:14:18.643Z,29.70
2018-06-07T21:16:47.026Z,27.63
2018-06-07T21:19:15.388Z,27.47
2018-06-07T21:21:43.729Z,27.67
2018-06-07T21:24:12.026Z,29.27
2018-06-07T21:26:40.369Z,33.50
2018-06-07T21:29:08.670Z,33.17
2018-06-07T21:31:37.007Z,30.10
2018-06-07T21:34:05.495Z,34.50
2018-06-07T21:36:33.838Z,34.27
2018-06-07T21:39:02.150Z,35.27
2018-06-07T21:41:30.494Z,33.40
2018-06-07T21:43:58.822Z,36.63
2018-06-07T21:46:27.142Z,35.90
2018-06-07T21:48:55.675Z,37.57
2018-06-07T21:51:24.154Z,35.83
2018-06-07T21:53:55.367Z,39.13
2018-06-07T21:56:23.721Z,37.70
2018-06-07T21:58:52.055Z,42.97
2018-06-07T22:01:20.366Z,41.43
2018-06-07T22:03:48.668Z,43.10
2018-06-07T22:06:16.968Z,43.10
2018-06-07T22:08:45.293Z,42.73
2018-06-07T22:11:13.577Z,48.13
2018-06-07T22:13:41.928Z,44.67
2018-06-07T22:16:10.413Z,44.27
2018-06-07T22:18:38.764Z,43.73
2018-06-07T22:21:07.094Z,42.73
2018-06-07T22:23:35.411Z,42.63
2018-06-07T22:26:03.757Z,44.77
2018-06-07T22:28:32.123Z,47.90
2018-06-07T22:31:00.405Z,46.43
2018-06-07T22:33:28.697Z,47.23
2018-06-07T22:35:56.974Z,50.47
2018-06-07T22:38:25.260Z,47.63
2018-06-07T22:40:53.596Z,48.73
2018-06-07T22:43:21.905Z,48.43
2018-06-07T22:45:50.198Z,53.97
2018-06-07T22:48:18.489Z,52.53
2018-06-07T22:50:47.415Z,49.60
2018-06-07T22:53:15.714Z,55.93
2018-06-07T22:55:44.074Z,53.80
2018-06-07T22:58:12.356Z,51.90
2018-06-07T23:00:40.628Z,55.03
2018-06-07T23:03:08.943Z,56.07
2018-06-07T23:05:37.263Z,54.80
2018-06-07T23:08:05.675Z,51.67
2018-06-07T23:10:34.022Z,58.57
2018-06-07T23:13:02.317Z,55.43
2018-06-07T23:15:30.632Z,64.17
2018-06-07T23:17:58.934Z,66.63
2018-06-07T23:20:27.595Z,71.53
2018-06-07T23:22:55.642Z,70.60
2018-06-07T23:25:23.959Z,70.90
2018-06-07T23:27:52.240Z,75.80
2018-06-07T23:30:20.564Z,71.57
2018-06-07T23:32:48.847Z,61.30
2018-06-07T23:35:17.124Z,68.80
2018-06-07T23:37:45.463Z,65.90
2018-06-07T23:40:13.737Z,69.83
2018-06-07T23:42:42.051Z,82.40
2018-06-07T23:45:10.385Z,84.50
2018-06-07T23:47:38.666Z,88.90
2018-06-07T23:50:06.989Z,94.07
2018-06-07T23:52:35.303Z,96.43
2018-06-07T23:55:03.601Z,97.30
2018-06-07T23:57:31.899Z,104.97
